createdAt,value
2023-03-14T00:01:51.635Z,98327.22
2023-03-14T00:04:20.346Z,98457.38
2023-03-14T00:06:47.836Z,98364.69
2023-03-14T00:09:14.808Z,98406.59
2023-03-14T00:11:42.208Z,98435.28
2023-03-14T00:14:08.667Z,98428.44
2023-03-14T00:16:35.033Z,98362.94
2023-03-14T00:19:01.716Z,98473.78
2023-03-14T00:21:28.207Z,98408.53
2023-03-14T00:23:54.903Z,98349.19
2023-03-14T00:26:22.551Z,98382.19
2023-03-14T00:28:52.956Z,98391.38
2023-03-14T00:31:19.884Z,98351.69
2023-03-14T00:33:47.004Z,98443.63
2023-03-14T00:36:15.760Z,98422.81
2023-03-14T00:38:43.861Z,98427.91
2023-03-14T00:41:12.860Z,98459.59
2023-03-14T00:43:39.565Z,98440.31
2023-03-14T00:46:06.707Z,98350.72
2023-03-14T00:48:33.590Z,98477.84
2023-03-14T00:50:59.983Z,98367.91
2023-03-14T00:53:26.405Z,98354.00
2023-03-14T00:55:52.766Z,98398.97
2023-03-14T00:58:19.642Z,98387.34
2023-03-14T01:00:46.839Z,98475.97
2023-03-14T01:03:15.549Z,98435.31
2023-03-14T01:05:42.267Z,98380.50
2023-03-14T01:08:08.731Z,98412.06
2023-03-14T01:10:38.426Z,98357.19
2023-03-14T01:13:04.904Z,98348.81
2023-03-14T01:15:33.461Z,98399.91
2023-03-14T01:17:59.960Z,98408.09
2023-03-14T01:20:26.400Z,98454.09
2023-03-14T01:22:52.817Z,98344.53
2023-03-14T01:25:19.505Z,98363.75
2023-03-14T01:27:46.195Z,98442.94
2023-03-14T01:30:13.626Z,98421.66
2023-03-14T01:32:40.915Z,98443.44
2023-03-14T01:35:07.936Z,98405.59
2023-03-14T01:37:34.514Z,98338.78
2023-03-14T01:40:01.050Z,98417.06
2023-03-14T01:42:27.576Z,98429.22
2023-03-14T01:44:59.403Z,98433.59
2023-03-14T01:47:26.882Z,98427.84
2023-03-14T01:50:09.005Z,98413.97
2023-03-14T01:52:44.889Z,98407.06
2023-03-14T01:55:16.826Z,98208.31
2023-03-14T01:57:53.838Z,98406.84
2023-03-14T02:00:24.109Z,98401.06
2023-03-14T02:03:03.312Z,98322.63
2023-03-14T02:05:36.802Z,98332.78
2023-03-14T02:08:06.638Z,98315.22
2023-03-14T02:10:38.002Z,98327.03
2023-03-14T02:13:06.052Z,98398.84
2023-03-14T02:15:33.374Z,98325.09
2023-03-14T02:18:02.535Z,98298.38
2023-03-14T02:20:48.610Z,98405.19
2023-03-14T02:23:18.052Z,98345.72
2023-03-14T02:25:52.161Z,98411.81
2023-03-14T02:28:18.818Z,98210.78
2023-03-14T02:30:45.825Z,98407.59
2023-03-14T02:33:15.287Z,98419.56
2023-03-14T02:35:47.489Z,98401.44
2023-03-14T02:38:23.429Z,98334.31
2023-03-14T02:40:50.657Z,98394.69
2023-03-14T02:43:17.517Z,98195.66
2023-03-14T02:45:49.090Z,98399.38
2023-03-14T02:48:26.064Z,98389.47
2023-03-14T02:50:59.750Z,98228.72
2023-03-14T02:53:30.091Z,98313.19
2023-03-14T02:55:56.544Z,98373.50
2023-03-14T02:58:23.045Z,98376.94
2023-03-14T03:00:49.650Z,98343.47
2023-03-14T03:03:16.208Z,98358.06
2023-03-14T03:05:43.561Z,98324.56
2023-03-14T03:08:10.404Z,98201.44
2023-03-14T03:10:37.009Z,98354.47
2023-03-14T03:13:03.512Z,98343.69
2023-03-14T03:15:29.993Z,98357.56
2023-03-14T03:17:56.385Z,98377.50
2023-03-14T03:20:22.831Z,98305.84
2023-03-14T03:22:50.808Z,98294.56
2023-03-14T03:25:17.759Z,98247.72
2023-03-14T03:27:44.153Z,98201.56
2023-03-14T03:30:11.371Z,98352.56
2023-03-14T03:32:37.832Z,98287.09
2023-03-14T03:35:05.648Z,98310.13
2023-03-14T03:37:33.606Z,98388.34
2023-03-14T03:40:00.222Z,98293.09
2023-03-14T03:42:30.004Z,98382.59
2023-03-14T03:44:56.539Z,98370.84
2023-03-14T03:47:22.958Z,98370.72
2023-03-14T03:49:49.406Z,98341.78
2023-03-14T03:52:15.788Z,98292.06
2023-03-14T03:54:42.181Z,98246.47
2023-03-14T03:57:08.634Z,98361.84
2023-03-14T03:59:35.100Z,98344.66
2023-03-14T04:02:01.847Z,98383.41
2023-03-14T04:04:28.313Z,98369.38
2023-03-14T04:06:54.868Z,98311.59
2023-03-14T04:09:21.253Z,98281.81
2023-03-14T04:11:47.702Z,98343.91
2023-03-14T04:14:14.124Z,98336.75
2023-03-14T04:16:40.613Z,98378.31
2023-03-14T04:19:07.198Z,98319.25
2023-03-14T04:21:33.697Z,98182.13
2023-03-14T04:24:00.152Z,98312.00
2023-03-14T04:26:26.567Z,98341.38
2023-03-14T04:28:53.005Z,98298.00
2023-03-14T04:31:22.212Z,98327.19
2023-03-14T04:33:48.795Z,98334.53
2023-03-14T04:36:15.397Z,98281.94
2023-03-14T04:38:42.072Z,98293.34
2023-03-14T04:41:08.486Z,98233.16
2023-03-14T04:43:34.953Z,98265.41
2023-03-14T04:46:01.477Z,98328.22
2023-03-14T04:48:29.232Z,98301.75
2023-03-14T04:50:56.055Z,98266.44
2023-03-14T04:53:22.857Z,98258.84
2023-03-14T04:55:55.777Z,98336.69
2023-03-14T04:58:23.237Z,98332.22
2023-03-14T05:00:49.661Z,98244.56
2023-03-14T05:03:17.555Z,98245.34
2023-03-14T05:05:44.444Z,98226.66
2023-03-14T05:08:12.441Z,98312.88
2023-03-14T05:10:41.010Z,98168.19
2023-03-14T05:13:07.405Z,98299.69
2023-03-14T05:15:33.841Z,98224.78
2023-03-14T05:18:01.282Z,98258.59
2023-03-14T05:20:27.704Z,98228.41
2023-03-14T05:22:55.232Z,98214.41
2023-03-14T05:25:21.632Z,98170.22
2023-03-14T05:27:48.058Z,98260.94
2023-03-14T05:30:19.829Z,98287.38
2023-03-14T05:32:46.404Z,98253.94
2023-03-14T05:35:13.082Z,98168.75
2023-03-14T05:37:40.005Z,98209.28
2023-03-14T05:40:07.621Z,98233.19
2023-03-14T05:42:34.225Z,98276.91
2023-03-14T05:45:00.729Z,98213.38
2023-03-14T05:51:24.143Z,98276.53
2023-03-14T05:54:23.193Z,98279.41
2023-03-14T05:56:49.660Z,98168.66
2023-03-14T05:59:16.064Z,98219.72
2023-03-14T06:01:42.519Z,98237.13
2023-03-14T06:04:10.013Z,98230.66
2023-03-14T06:06:39.369Z,98228.16
2023-03-14T06:09:05.798Z,98252.50
2023-03-14T06:11:32.169Z,98260.66
2023-03-14T06:13:58.598Z,98236.56
2023-03-14T06:16:25.103Z,98272.50
2023-03-14T06:18:53.147Z,98248.50
2023-03-14T06:21:20.465Z,98283.81
2023-03-14T06:23:46.941Z,98279.53
2023-03-14T06:26:13.533Z,98259.69
2023-03-14T06:28:45.878Z,98215.63
2023-03-14T06:31:12.486Z,98177.56
2023-03-14T06:33:38.999Z,98197.81
2023-03-14T06:36:05.765Z,98276.00
2023-03-14T06:38:32.383Z,98223.47
2023-03-14T06:41:06.861Z,98232.44
2023-03-14T06:43:33.322Z,98272.03
2023-03-14T06:45:59.934Z,98196.19
2023-03-14T06:48:26.512Z,98270.34
2023-03-14T06:50:52.955Z,98275.63
2023-03-14T06:53:19.365Z,98218.34
2023-03-14T06:55:46.610Z,98234.13
2023-03-14T06:58:13.259Z,98224.59
2023-03-14T07:00:42.843Z,98274.56
2023-03-14T07:03:12.946Z,98171.53
2023-03-14T07:05:41.442Z,98283.63
2023-03-14T07:08:09.371Z,98288.13
2023-03-14T07:10:38.271Z,98269.41
2023-03-14T07:13:04.849Z,98213.88
2023-03-14T07:15:31.755Z,98266.09
2023-03-14T07:17:58.346Z,98273.75
2023-03-14T07:20:24.978Z,98266.53
2023-03-14T07:22:51.663Z,98293.56
2023-03-14T07:25:18.842Z,98226.00
2023-03-14T07:27:46.248Z,98266.09
2023-03-14T07:30:13.254Z,98235.06
2023-03-14T07:32:39.779Z,98259.91
2023-03-14T07:35:07.223Z,98245.59
2023-03-14T07:37:33.617Z,98301.38
2023-03-14T07:40:00.080Z,98322.91
2023-03-14T07:42:26.568Z,98201.25
2023-03-14T07:44:53.522Z,98306.34
2023-03-14T07:47:20.118Z,98266.66
2023-03-14T07:49:46.483Z,98217.13
2023-03-14T07:52:14.037Z,98291.66
2023-03-14T07:54:49.536Z,98252.25
2023-03-14T07:57:15.954Z,98255.88
2023-03-14T07:59:42.384Z,98313.31
2023-03-14T08:02:12.714Z,98300.88
2023-03-14T08:04:41.022Z,98211.53
2023-03-14T08:07:07.855Z,98320.69
2023-03-14T08:09:34.520Z,98302.69
2023-03-14T08:12:03.662Z,98253.44
2023-03-14T08:14:31.318Z,98344.19
2023-03-14T08:16:57.766Z,98218.78
2023-03-14T08:19:24.166Z,98341.78
2023-03-14T08:21:53.045Z,98354.59
2023-03-14T08:24:19.426Z,98326.22
2023-03-14T08:26:45.894Z,98305.78
2023-03-14T08:29:13.821Z,98363.13
2023-03-14T08:31:40.201Z,98340.25
2023-03-14T08:34:07.675Z,98323.81
2023-03-14T08:36:34.856Z,98349.03
2023-03-14T08:39:01.529Z,98365.81
2023-03-14T08:41:28.087Z,98308.22
2023-03-14T08:43:54.569Z,98370.19
2023-03-14T08:46:21.123Z,98397.50
2023-03-14T08:48:48.175Z,98406.91
2023-03-14T08:51:15.284Z,98393.84
2023-03-14T08:53:42.652Z,98470.97
2023-03-14T08:56:10.999Z,98492.97
2023-03-14T08:58:38.870Z,98491.09
2023-03-14T09:01:13.341Z,98429.00
2023-03-14T09:03:39.982Z,98536.84
2023-03-14T09:06:09.056Z,98496.94
2023-03-14T09:08:38.097Z,98521.94
2023-03-14T09:11:09.330Z,98510.75
2023-03-14T09:13:36.532Z,98462.91
2023-03-14T09:16:03.014Z,98497.81
2023-03-14T09:18:29.956Z,98572.63
2023-03-14T09:20:57.133Z,98593.00
2023-03-14T09:23:23.536Z,98533.28
2023-03-14T09:25:50.491Z,98556.22
2023-03-14T09:28:19.369Z,98623.69
2023-03-14T09:30:45.800Z,98563.78
2023-03-14T09:33:12.210Z,98563.75
2023-03-14T09:35:38.668Z,98619.53
2023-03-14T09:38:06.363Z,98625.06
2023-03-14T09:40:36.156Z,98583.25
2023-03-14T09:43:03.678Z,98647.44
2023-03-14T09:45:37.829Z,98708.06
2023-03-14T09:48:05.167Z,98708.34
2023-03-14T09:50:41.268Z,98715.78
2023-03-14T09:53:16.703Z,98714.31
2023-03-14T09:55:44.099Z,98744.69
2023-03-14T09:58:13.548Z,98676.69
2023-03-14T10:00:40.477Z,98688.50
2023-03-14T10:03:13.058Z,98723.00
2023-03-14T10:05:43.324Z,98640.44
2023-03-14T10:08:14.381Z,98743.31
2023-03-14T10:10:41.344Z,98780.50
2023-03-14T10:13:19.987Z,98778.25
2023-03-14T10:15:55.053Z,98800.09
2023-03-14T10:18:23.532Z,98829.94
2023-03-14T10:20:50.893Z,98777.28
2023-03-14T10:23:17.201Z,98830.03
2023-03-14T10:25:46.032Z,98805.41
2023-03-14T10:28:30.318Z,98832.09
2023-03-14T10:30:57.593Z,98832.69
2023-03-14T10:33:28.652Z,98866.03
2023-03-14T10:36:24.642Z,98867.00
2023-03-14T10:38:51.036Z,98833.69
2023-03-14T10:41:26.510Z,98870.66
2023-03-14T10:43:59.998Z,98878.16
2023-03-14T10:46:30.654Z,98839.94
2023-03-14T10:48:57.764Z,98893.97
2023-03-14T10:51:29.516Z,98909.00
2023-03-14T10:54:19.756Z,98933.97
2023-03-14T10:56:48.442Z,98927.59
2023-03-14T10:59:16.468Z,98999.34
2023-03-14T11:02:07.605Z,98967.19
2023-03-14T11:05:05.501Z,98993.84
2023-03-14T11:07:46.106Z,98954.50
2023-03-14T11:10:21.698Z,98960.31
2023-03-14T11:13:03.546Z,99043.31
2023-03-14T11:15:46.110Z,98938.91
2023-03-14T11:18:45.695Z,99009.09
2023-03-14T11:21:38.698Z,98933.97
2023-03-14T11:24:32.433Z,99034.91
2023-03-14T11:27:11.793Z,99018.88
2023-03-14T11:29:41.363Z,99090.84
2023-03-14T11:32:20.429Z,99084.66
2023-03-14T11:34:56.099Z,99078.13
2023-03-14T11:37:46.925Z,99108.06
2023-03-14T11:40:22.640Z,99037.41
2023-03-14T11:42:57.225Z,99058.34
2023-03-14T11:45:42.151Z,99094.56
2023-03-14T11:48:19.050Z,99106.03
2023-03-14T11:50:52.487Z,99152.09
2023-03-14T11:53:37.259Z,99134.97
2023-03-14T11:56:05.171Z,99140.72
2023-03-14T11:58:38.808Z,99183.69
2023-03-14T12:01:12.003Z,99183.81
2023-03-14T12:03:48.071Z,99115.69
2023-03-14T12:06:25.406Z,99206.69
2023-03-14T12:09:06.276Z,99209.25
2023-03-14T12:11:41.757Z,99221.13
2023-03-14T12:14:31.823Z,99218.00
2023-03-14T12:17:19.671Z,99226.16
2023-03-14T12:19:47.954Z,99182.50
2023-03-14T12:22:26.498Z,99233.91
2023-03-14T12:24:58.541Z,99270.47
2023-03-14T12:27:57.531Z,99269.38
2023-03-14T12:30:29.286Z,99172.88
2023-03-14T12:33:13.810Z,99266.50
2023-03-14T12:35:49.704Z,99281.25
2023-03-14T12:38:25.391Z,99249.69
2023-03-14T12:41:15.172Z,99233.00
2023-03-14T12:43:42.156Z,99252.44
2023-03-14T12:46:21.920Z,99297.28
2023-03-14T12:49:04.020Z,99210.06
2023-03-14T12:51:44.447Z,99299.50
2023-03-14T12:54:37.134Z,99371.47
2023-03-14T12:57:17.937Z,99291.59
2023-03-14T12:59:58.252Z,99292.25
2023-03-14T13:02:44.498Z,99366.31
2023-03-14T13:05:14.640Z,99326.56
2023-03-14T13:07:47.092Z,99415.75
2023-03-14T13:10:26.163Z,99283.03
2023-03-14T13:13:08.507Z,99375.47
2023-03-14T13:15:43.756Z,99373.53
2023-03-14T13:18:15.270Z,99329.50
2023-03-14T13:20:54.029Z,99425.22
2023-03-14T13:23:25.192Z,99428.38
2023-03-14T13:25:52.044Z,99390.28
2023-03-14T13:28:21.628Z,99449.75
2023-03-14T13:30:53.654Z,99289.56
2023-03-14T13:33:22.498Z,99454.66
2023-03-14T13:35:56.983Z,99386.69
2023-03-14T13:38:28.683Z,99461.81
2023-03-14T13:41:00.733Z,99444.28
2023-03-14T13:43:35.253Z,99459.03
2023-03-14T13:46:07.883Z,99480.66
2023-03-14T13:48:40.257Z,99372.75
2023-03-14T13:51:10.135Z,99327.28
2023-03-14T13:53:55.351Z,99415.56
2023-03-14T13:56:24.354Z,99392.88
2023-03-14T13:58:51.250Z,99491.63
2023-03-14T14:01:25.580Z,99485.00
2023-03-14T14:03:55.789Z,99423.50
2023-03-14T14:06:45.686Z,99513.16
2023-03-14T14:09:20.820Z,99444.22
2023-03-14T14:12:11.255Z,99407.22
2023-03-14T14:14:57.179Z,99561.84
2023-03-14T14:17:37.386Z,99505.94
2023-03-14T14:20:09.931Z,99537.19
2023-03-14T14:22:36.872Z,99503.50
2023-03-14T14:25:04.299Z,99474.91
2023-03-14T14:27:36.610Z,99527.03
2023-03-14T14:30:07.386Z,99540.91
2023-03-14T14:32:39.249Z,99594.88
2023-03-14T14:35:07.097Z,99523.31
2023-03-14T14:37:36.611Z,99537.63
2023-03-14T14:40:11.619Z,99555.56
2023-03-14T14:42:42.365Z,99502.28
2023-03-14T14:45:19.602Z,99510.59
2023-03-14T14:48:06.503Z,99510.59
2023-03-14T14:50:34.584Z,99567.94
2023-03-14T14:53:25.833Z,99648.13
2023-03-14T14:56:04.375Z,99652.25
2023-03-14T14:58:40.615Z,99481.84
2023-03-14T15:01:24.671Z,99610.81
2023-03-14T15:03:59.030Z,99614.59
2023-03-14T15:06:28.765Z,99688.47
2023-03-14T15:08:56.482Z,99625.63
2023-03-14T15:11:32.531Z,99581.00
2023-03-14T15:13:59.020Z,99579.56
2023-03-14T15:16:31.066Z,99580.38
2023-03-14T15:19:23.646Z,99678.69
2023-03-14T15:21:52.267Z,99624.00
2023-03-14T15:24:18.858Z,99594.09
2023-03-14T15:26:48.737Z,99605.28
2023-03-14T15:29:15.245Z,99613.38
2023-03-14T15:31:44.840Z,99558.47
2023-03-14T15:34:21.853Z,99667.69
2023-03-14T15:36:49.169Z,99693.50
2023-03-14T15:39:24.914Z,99629.09
2023-03-14T15:41:51.482Z,99672.53
2023-03-14T15:44:28.386Z,99761.28
2023-03-14T15:47:01.498Z,99648.63
2023-03-14T15:49:28.765Z,99603.03
2023-03-14T15:51:57.789Z,99670.16
2023-03-14T15:54:25.109Z,99632.84
2023-03-14T15:56:54.844Z,99698.56
2023-03-14T15:59:31.576Z,99633.19
2023-03-14T16:02:04.150Z,99789.19
2023-03-14T16:04:30.663Z,99659.00
2023-03-14T16:07:00.945Z,99690.59
2023-03-14T16:09:28.052Z,99777.91
2023-03-14T16:11:56.244Z,99690.69
2023-03-14T16:14:24.728Z,99691.41
2023-03-14T16:16:53.428Z,99891.84
2023-03-14T16:19:19.924Z,99759.78
2023-03-14T16:21:46.891Z,99736.34
2023-03-14T16:24:13.335Z,99785.56
2023-03-14T16:26:43.392Z,99765.25
2023-03-14T16:29:13.313Z,99801.16
2023-03-14T16:31:43.068Z,99828.59
2023-03-14T16:34:10.509Z,99718.84
2023-03-14T16:36:37.598Z,99728.09
2023-03-14T16:39:07.066Z,99737.50
2023-03-14T16:41:36.582Z,99876.50
2023-03-14T16:44:03.339Z,99782.53
2023-03-14T16:46:30.576Z,99838.84
2023-03-14T16:49:01.099Z,99830.38
2023-03-14T16:51:28.230Z,99810.88
2023-03-14T16:54:12.759Z,99909.81
2023-03-14T16:56:39.435Z,99960.66
2023-03-14T16:59:11.570Z,99753.78
2023-03-14T17:01:47.558Z,99897.66
2023-03-14T17:04:21.756Z,99743.41
2023-03-14T17:06:48.393Z,99994.16
2023-03-14T17:09:15.172Z,99757.09
2023-03-14T17:11:42.104Z,99889.38
2023-03-14T17:14:11.231Z,99813.97
2023-03-14T17:16:45.677Z,99803.22
2023-03-14T17:19:12.224Z,99964.53
2023-03-14T17:21:38.849Z,99965.47
2023-03-14T17:24:07.953Z,100050.78
2023-03-14T17:26:34.588Z,99947.59
2023-03-14T17:29:01.224Z,99914.94
2023-03-14T17:31:28.010Z,99987.56
2023-03-14T17:33:55.226Z,99922.22
2023-03-14T17:36:29.020Z,99872.91
2023-03-14T17:38:57.592Z,100074.00
2023-03-14T17:41:27.278Z,99994.81
2023-03-14T17:43:55.884Z,99957.72
2023-03-14T17:46:22.449Z,100109.84
2023-03-14T17:48:51.785Z,100064.38
2023-03-14T17:51:18.849Z,99992.06
2023-03-14T17:53:45.410Z,100041.75
2023-03-14T17:56:12.720Z,99982.09
2023-03-14T17:58:39.718Z,100012.63
2023-03-14T18:01:34.228Z,100096.44
2023-03-14T18:04:03.067Z,100131.47
2023-03-14T18:06:31.667Z,100154.66
2023-03-14T18:08:59.970Z,99969.88
2023-03-14T18:11:26.798Z,100091.53
2023-03-14T18:13:53.325Z,100172.66
2023-03-14T18:16:22.604Z,100115.50
2023-03-14T18:18:49.448Z,99993.63
2023-03-14T18:21:17.336Z,100051.22
2023-03-14T18:23:43.768Z,100049.19
2023-03-14T18:26:10.409Z,100072.47
2023-03-14T18:28:36.863Z,100061.44
2023-03-14T18:31:07.932Z,100109.38
2023-03-14T18:33:41.174Z,100149.56
2023-03-14T18:36:14.514Z,100118.50
2023-03-14T18:38:48.220Z,100149.84
2023-03-14T18:41:16.702Z,100232.28
2023-03-14T18:43:43.615Z,100112.91
2023-03-14T18:46:13.523Z,100136.13
2023-03-14T18:48:42.126Z,100097.50
2023-03-14T18:51:17.277Z,100123.41
2023-03-14T18:53:45.175Z,100111.59
2023-03-14T18:56:14.022Z,100112.53
2023-03-14T18:58:41.419Z,100231.03
2023-03-14T19:01:08.238Z,100178.63
2023-03-14T19:03:37.676Z,100228.47
2023-03-14T19:06:08.607Z,100239.63
2023-03-14T19:08:36.438Z,100276.53
2023-03-14T19:11:05.513Z,100130.53
2023-03-14T19:13:33.579Z,100090.47
2023-03-14T19:16:01.046Z,100228.19
2023-03-14T19:18:28.541Z,100197.94
2023-03-14T19:21:07.511Z,100314.22
2023-03-14T19:23:35.648Z,100308.13
2023-03-14T19:26:07.237Z,100158.38
2023-03-14T19:28:33.827Z,100082.72
2023-03-14T19:31:03.514Z,100301.34
2023-03-14T19:33:31.082Z,100334.31
2023-03-14T19:35:58.426Z,100292.13
2023-03-14T19:38:25.093Z,100151.22
2023-03-14T19:40:56.715Z,100185.69
2023-03-14T19:43:23.220Z,100104.06
2023-03-14T19:45:49.689Z,100317.41
2023-03-14T19:48:16.225Z,100209.81
2023-03-14T19:50:43.383Z,100258.91
2023-03-14T19:53:10.542Z,100268.50
2023-03-14T19:55:37.581Z,100178.16
2023-03-14T19:58:04.369Z,100259.13
2023-03-14T20:00:33.844Z,100312.53
2023-03-14T20:03:04.486Z,100345.28
2023-03-14T20:05:30.864Z,100316.03
2023-03-14T20:07:57.334Z,100316.97
2023-03-14T20:10:23.786Z,100341.94
2023-03-14T20:12:53.305Z,100252.50
2023-03-14T20:15:28.829Z,100250.81
2023-03-14T20:17:55.319Z,100249.19
2023-03-14T20:20:48.299Z,100249.22
2023-03-14T20:23:15.529Z,100323.28
2023-03-14T20:25:42.447Z,100347.47
2023-03-14T20:28:08.845Z,100271.78
2023-03-14T20:30:35.452Z,100373.41
2023-03-14T20:33:04.992Z,100282.13
2023-03-14T20:35:31.525Z,100370.03
2023-03-14T20:37:58.048Z,100311.47
2023-03-14T20:40:28.639Z,100390.63
2023-03-14T20:42:55.168Z,100392.53
2023-03-14T20:45:21.533Z,100397.59
2023-03-14T20:47:47.916Z,100308.13
2023-03-14T20:50:14.356Z,100422.78
2023-03-14T20:52:41.789Z,100382.34
2023-03-14T20:55:08.632Z,100315.13
2023-03-14T20:57:35.119Z,100365.16
2023-03-14T21:00:01.661Z,100382.38
2023-03-14T21:02:28.036Z,100360.91
2023-03-14T21:04:57.629Z,100422.13
2023-03-14T21:07:24.083Z,100387.69
2023-03-14T21:09:50.417Z,100408.44
2023-03-14T21:12:16.760Z,100336.00
2023-03-14T21:14:43.286Z,100421.38
2023-03-14T21:17:09.689Z,100377.47
2023-03-14T21:19:36.094Z,100426.63
2023-03-14T21:22:31.989Z,100424.84
2023-03-14T21:28:36.644Z,100341.25
2023-03-14T21:31:14.111Z,100424.88
2023-03-14T21:33:44.319Z,100329.22
2023-03-14T21:39:48.649Z,100448.19
2023-03-14T21:42:33.346Z,100344.72
2023-03-14T21:45:22.389Z,100452.59
2023-03-14T21:47:48.873Z,100359.44
2023-03-14T21:50:15.492Z,100353.34
2023-03-14T21:52:46.189Z,100415.44
2023-03-14T21:55:17.494Z,100331.81
2023-03-14T21:57:48.543Z,100384.44
2023-03-14T22:00:19.725Z,100312.94
2023-03-14T22:03:03.316Z,100382.78
2023-03-14T22:05:34.538Z,100479.34
2023-03-14T22:08:01.014Z,100361.97
2023-03-14T22:10:27.584Z,100299.91
2023-03-14T22:12:56.030Z,100303.38
2023-03-14T22:15:22.476Z,100324.06
2023-03-14T22:17:48.940Z,100344.81
2023-03-14T22:20:15.697Z,100431.91
2023-03-14T22:22:42.227Z,100423.31
2023-03-14T22:25:09.227Z,100384.53
2023-03-14T22:27:35.785Z,100439.63
2023-03-14T22:30:02.246Z,100415.50
2023-03-14T22:32:28.903Z,100454.31
2023-03-14T22:34:55.265Z,100453.44
2023-03-14T22:37:23.236Z,100383.66
2023-03-14T22:39:49.587Z,100379.34
2023-03-14T22:42:16.053Z,100363.81
2023-03-14T22:44:42.481Z,100479.38
2023-03-14T22:47:09.069Z,100455.19
2023-03-14T22:49:35.465Z,100353.41
2023-03-14T22:52:01.974Z,100383.50
2023-03-14T22:54:28.443Z,100437.88
2023-03-14T22:56:55.047Z,100413.66
2023-03-14T22:59:21.553Z,100369.75
2023-03-14T23:01:47.998Z,100305.13
2023-03-14T23:04:14.379Z,100378.50
2023-03-14T23:06:40.762Z,100499.34
2023-03-14T23:09:07.164Z,100471.66
2023-03-14T23:11:35.390Z,100338.00
2023-03-14T23:14:03.529Z,100415.59
2023-03-14T23:16:38.046Z,100465.66
2023-03-14T23:19:06.658Z,100495.88
2023-03-14T23:21:33.150Z,100454.41
2023-03-14T23:23:59.619Z,100501.94
2023-03-14T23:26:27.163Z,100497.59
2023-03-14T23:28:54.609Z,100478.66
2023-03-14T23:31:21.728Z,100491.56
2023-03-14T23:33:49.934Z,100331.94
2023-03-14T23:36:18.340Z,100284.50
2023-03-14T23:38:46.004Z,100287.97
2023-03-14T23:41:15.732Z,100517.47
2023-03-14T23:43:44.316Z,100420.84
2023-03-14T23:46:11.671Z,100521.75
2023-03-14T23:48:38.206Z,100427.72
2023-03-14T23:51:06.948Z,100414.78
2023-03-14T23:53:33.904Z,100450.09
2023-03-14T23:56:01.255Z,100450.13
2023-03-14T23:58:27.796Z,100519.13
